createdAt,value
2023-05-08T00:03:31.383Z,98802.66
2023-05-08T00:05:59.298Z,98803.00
2023-05-08T00:08:26.897Z,98786.66
2023-05-08T00:10:54.356Z,98793.94
2023-05-08T00:13:24.014Z,98789.50
2023-05-08T00:15:51.895Z,98796.44
2023-05-08T00:18:19.082Z,98801.00
2023-05-08T00:20:46.853Z,98789.66
2023-05-08T00:23:13.898Z,98788.56
2023-05-08T00:25:41.657Z,98785.88
2023-05-08T00:28:10.809Z,98784.25
2023-05-08T00:30:38.570Z,98782.06
2023-05-08T00:33:06.361Z,98787.59
2023-05-08T00:35:33.811Z,98785.75
2023-05-08T00:38:02.877Z,98786.56
2023-05-08T00:40:31.048Z,98790.59
2023-05-08T00:43:00.508Z,98799.13
2023-05-08T00:45:35.010Z,98792.44
2023-05-08T00:48:04.394Z,98797.78
2023-05-08T00:50:33.093Z,98795.72
2023-05-08T00:53:05.114Z,98793.38
2023-05-08T00:55:33.412Z,98789.50
2023-05-08T00:58:00.563Z,98797.53
2023-05-08T01:00:29.461Z,98805.09
2023-05-08T01:02:57.414Z,98803.56
2023-05-08T01:05:30.502Z,98817.09
2023-05-08T01:07:58.225Z,98806.31
2023-05-08T01:10:34.916Z,98813.03
2023-05-08T01:13:29.476Z,98806.41
2023-05-08T01:16:20.538Z,98818.41
2023-05-08T01:19:23.376Z,98818.09
2023-05-08T01:22:16.393Z,98819.13
2023-05-08T01:24:50.766Z,98821.41
2023-05-08T01:27:46.398Z,98815.09
2023-05-08T01:30:28.036Z,98819.44
2023-05-08T01:33:08.233Z,98818.28
2023-05-08T01:35:51.186Z,98817.25
2023-05-08T01:38:52.493Z,98818.56
2023-05-08T01:41:28.180Z,98809.78
2023-05-08T01:44:16.828Z,98823.94
2023-05-08T01:46:51.281Z,98815.75
2023-05-08T01:49:26.837Z,98823.84
2023-05-08T01:52:01.108Z,98820.28
2023-05-08T01:54:34.454Z,98826.13
2023-05-08T01:57:04.543Z,98822.44
2023-05-08T01:59:35.192Z,98824.09
2023-05-08T02:02:04.571Z,98822.63
2023-05-08T02:04:37.288Z,98825.88
2023-05-08T02:07:08.109Z,98817.34
2023-05-08T02:09:35.762Z,98811.09
2023-05-08T02:12:07.058Z,98827.69
2023-05-08T02:14:36.424Z,98831.16
2023-05-08T02:17:06.574Z,98823.78
2023-05-08T02:19:36.538Z,98829.09
2023-05-08T02:22:06.120Z,98824.66
2023-05-08T02:24:35.846Z,98814.75
2023-05-08T02:27:04.486Z,98817.56
2023-05-08T02:29:32.733Z,98827.34
2023-05-08T02:32:02.472Z,98826.50
2023-05-08T02:34:31.616Z,98820.06
2023-05-08T02:37:00.519Z,98829.09
2023-05-08T02:39:31.291Z,98829.53
2023-05-08T02:41:58.793Z,98827.03
2023-05-08T02:44:26.235Z,98839.06
2023-05-08T02:47:06.955Z,98827.88
2023-05-08T02:49:46.847Z,98841.88
2023-05-08T02:52:24.248Z,98841.53
2023-05-08T02:55:16.035Z,98844.25
2023-05-08T02:58:02.720Z,98842.91
2023-05-08T03:00:34.033Z,98849.09
2023-05-08T03:03:14.664Z,98847.91
2023-05-08T03:05:50.224Z,98842.97
2023-05-08T03:08:24.362Z,98849.25
2023-05-08T03:10:54.259Z,98839.47
2023-05-08T03:13:22.487Z,98845.28
2023-05-08T03:16:03.715Z,98847.81
2023-05-08T03:18:40.540Z,98848.16
2023-05-08T03:21:13.352Z,98850.03
2023-05-08T03:23:46.313Z,98840.59
2023-05-08T03:26:22.133Z,98838.75
2023-05-08T03:28:51.510Z,98844.00
2023-05-08T03:31:24.216Z,98848.50
2023-05-08T03:33:58.344Z,98849.88
2023-05-08T03:36:29.123Z,98850.41
2023-05-08T03:38:59.955Z,98848.44
2023-05-08T03:41:28.082Z,98853.44
2023-05-08T03:43:57.774Z,98858.81
2023-05-08T03:46:27.499Z,98864.25
2023-05-08T03:49:01.323Z,98865.78
2023-05-08T03:51:32.681Z,98863.25
2023-05-08T03:54:01.628Z,98860.09
2023-05-08T03:56:32.956Z,98865.00
2023-05-08T03:59:15.638Z,98860.66
2023-05-08T04:01:56.266Z,98867.31
2023-05-08T04:04:46.216Z,98876.94
2023-05-08T04:07:32.286Z,98864.91
2023-05-08T04:10:28.471Z,98873.34
2023-05-08T04:13:08.575Z,98877.34
2023-05-08T04:15:51.953Z,98870.81
2023-05-08T04:18:29.367Z,98866.63
2023-05-08T04:21:02.705Z,98869.19
2023-05-08T04:23:35.083Z,98883.31
2023-05-08T04:26:05.645Z,98884.16
2023-05-08T04:28:35.506Z,98885.41
2023-05-08T04:31:06.206Z,98889.41
2023-05-08T04:33:35.978Z,98891.00
2023-05-08T04:36:05.226Z,98899.69
2023-05-08T04:38:39.966Z,98884.63
2023-05-08T04:41:09.284Z,98884.00
2023-05-08T04:43:38.935Z,98891.22
2023-05-08T04:46:09.544Z,98888.22
2023-05-08T04:48:37.485Z,98887.47
2023-05-08T04:51:05.005Z,98905.97
2023-05-08T04:53:33.527Z,98910.97
2023-05-08T04:56:03.707Z,98909.13
2023-05-08T04:58:30.925Z,98895.84
2023-05-08T05:01:04.058Z,98909.44
2023-05-08T05:03:33.834Z,98902.56
2023-05-08T05:06:03.683Z,98900.97
2023-05-08T05:08:32.603Z,98901.78
2023-05-08T05:11:02.415Z,98904.72
2023-05-08T05:13:31.850Z,98907.72
2023-05-08T05:16:03.493Z,98907.06
2023-05-08T05:18:32.592Z,98916.25
2023-05-08T05:21:05.018Z,98906.50
2023-05-08T05:23:33.537Z,98913.09
2023-05-08T05:26:04.919Z,98912.38
2023-05-08T05:28:36.142Z,98914.09
2023-05-08T05:31:05.333Z,98908.63
2023-05-08T05:33:34.094Z,98908.94
2023-05-08T05:36:04.041Z,98913.81
2023-05-08T05:38:32.975Z,98916.38
2023-05-08T05:41:06.163Z,98916.09
2023-05-08T05:43:34.113Z,98910.06
2023-05-08T05:46:10.376Z,98919.97
2023-05-08T05:48:44.101Z,98913.25
2023-05-08T05:51:13.072Z,98915.34
2023-05-08T05:53:45.370Z,98912.00
2023-05-08T05:56:14.160Z,98914.22
2023-05-08T05:58:47.787Z,98912.41
2023-05-08T06:01:16.140Z,98918.22
2023-05-08T06:03:45.321Z,98920.72
2023-05-08T06:06:15.469Z,98914.19
2023-05-08T06:08:46.101Z,98917.56
2023-05-08T06:11:14.351Z,98923.94
2023-05-08T06:13:42.467Z,98919.84
2023-05-08T06:16:11.469Z,98916.13
2023-05-08T06:18:42.443Z,98919.66
2023-05-08T06:21:12.485Z,98929.84
2023-05-08T06:23:44.037Z,98921.81
2023-05-08T06:26:12.481Z,98913.28
2023-05-08T06:28:43.850Z,98913.34
2023-05-08T06:31:13.170Z,98902.97
2023-05-08T06:33:41.609Z,98921.88
2023-05-08T06:36:11.650Z,98924.41
2023-05-08T06:38:39.864Z,98920.13
2023-05-08T06:41:07.617Z,98922.81
2023-05-08T06:43:35.524Z,98912.06
2023-05-08T06:46:09.660Z,98923.81
2023-05-08T06:48:41.993Z,98923.06
2023-05-08T06:51:13.745Z,98922.28
2023-05-08T06:53:45.681Z,98926.56
2023-05-08T06:56:13.273Z,98927.69
2023-05-08T06:58:41.651Z,98927.44
2023-05-08T07:01:10.114Z,98923.19
2023-05-08T07:03:42.136Z,98925.97
2023-05-08T07:06:12.728Z,98919.44
2023-05-08T07:08:41.289Z,98921.59
2023-05-08T07:11:10.863Z,98919.34
2023-05-08T07:13:39.013Z,98922.84
2023-05-08T07:16:12.236Z,98920.59
2023-05-08T07:18:45.411Z,98930.63
2023-05-08T07:21:16.317Z,98925.41
2023-05-08T07:23:45.347Z,98924.94
2023-05-08T07:26:14.338Z,98926.25
2023-05-08T07:28:52.116Z,98931.16
2023-05-08T07:31:21.305Z,98924.47
2023-05-08T07:33:54.639Z,98923.97
2023-05-08T07:36:23.511Z,98924.84
2023-05-08T07:38:50.975Z,98928.97
2023-05-08T07:41:18.852Z,98927.81
2023-05-08T07:43:46.501Z,98923.44
2023-05-08T07:46:18.277Z,98907.31
2023-05-08T07:48:46.079Z,98926.91
2023-05-08T07:51:15.388Z,98919.47
2023-05-08T07:53:44.964Z,98917.06
2023-05-08T07:56:12.779Z,98913.34
2023-05-08T07:58:43.098Z,98920.50
2023-05-08T08:01:10.567Z,98915.41
2023-05-08T08:03:38.208Z,98925.38
2023-05-08T08:06:06.323Z,98925.41
2023-05-08T08:08:34.589Z,98924.44
2023-05-08T08:11:03.834Z,98928.22
2023-05-08T08:13:36.185Z,98923.53
2023-05-08T08:16:05.349Z,98931.16
2023-05-08T08:18:38.621Z,98917.47
2023-05-08T08:21:09.653Z,98921.41
2023-05-08T08:23:37.869Z,98920.31
2023-05-08T08:26:09.128Z,98918.84
2023-05-08T08:28:36.882Z,98905.56
2023-05-08T08:31:05.495Z,98912.81
2023-05-08T08:33:32.903Z,98916.41
2023-05-08T08:36:00.027Z,98920.34
2023-05-08T08:38:31.275Z,98918.84
2023-05-08T08:41:00.028Z,98911.00
2023-05-08T08:43:30.452Z,98910.56
2023-05-08T08:45:59.855Z,98910.22
2023-05-08T08:48:31.226Z,98919.81
2023-05-08T08:51:05.833Z,98924.75
2023-05-08T08:53:44.361Z,98919.06
2023-05-08T08:56:18.076Z,98903.97
2023-05-08T08:58:52.114Z,98910.69
2023-05-08T09:01:21.714Z,98912.75
2023-05-08T09:03:52.722Z,98916.25
2023-05-08T09:06:22.244Z,98910.16
2023-05-08T09:08:55.208Z,98905.63
2023-05-08T09:11:23.370Z,98905.66
2023-05-08T09:13:51.883Z,98904.19
2023-05-08T09:16:18.942Z,98906.03
2023-05-08T09:18:53.322Z,98904.19
2023-05-08T09:21:23.952Z,98910.84
2023-05-08T09:24:06.298Z,98911.19
2023-05-08T09:26:37.171Z,98909.91
2023-05-08T09:29:11.954Z,98907.50
2023-05-08T09:31:42.373Z,98911.53
2023-05-08T09:34:30.496Z,98909.78
2023-05-08T09:37:11.976Z,98906.41
2023-05-08T09:39:43.747Z,98903.84
2023-05-08T09:42:15.208Z,98902.28
2023-05-08T09:44:51.407Z,98905.88
2023-05-08T09:47:25.678Z,98897.34
2023-05-08T09:50:09.509Z,98907.16
2023-05-08T09:52:38.475Z,98904.50
2023-05-08T09:55:11.551Z,98893.34
2023-05-08T09:57:41.158Z,98901.25
2023-05-08T10:00:11.705Z,98889.88
2023-05-08T10:02:55.397Z,98900.97
2023-05-08T10:05:28.228Z,98896.78
2023-05-08T10:07:56.411Z,98890.38
2023-05-08T10:10:31.132Z,98889.00
2023-05-08T10:12:59.207Z,98894.09
2023-05-08T10:15:34.568Z,98872.00
2023-05-08T10:18:08.022Z,98886.88
2023-05-08T10:20:42.603Z,98884.28
2023-05-08T10:23:23.940Z,98884.00
2023-05-08T10:26:02.247Z,98880.03
2023-05-08T10:28:37.555Z,98885.19
2023-05-08T10:31:08.368Z,98884.66
2023-05-08T10:33:42.328Z,98873.34
2023-05-08T10:36:13.684Z,98878.16
2023-05-08T10:38:44.800Z,98875.41
2023-05-08T10:41:20.436Z,98883.13
2023-05-08T10:43:52.409Z,98876.72
2023-05-08T10:46:30.830Z,98875.97
2023-05-08T10:49:08.102Z,98863.69
2023-05-08T10:51:57.800Z,98870.66
2023-05-08T10:54:29.291Z,98865.78
2023-05-08T10:57:11.907Z,98863.78
2023-05-08T10:59:51.394Z,98863.06
2023-05-08T11:02:38.198Z,98863.19
2023-05-08T11:05:24.723Z,98856.75
2023-05-08T11:07:57.946Z,98857.03
2023-05-08T11:10:33.700Z,98855.59
2023-05-08T11:13:01.885Z,98849.28
2023-05-08T11:15:44.239Z,98848.63
2023-05-08T11:18:12.436Z,98851.91
2023-05-08T11:20:57.832Z,98849.47
2023-05-08T11:23:36.919Z,98843.31
2023-05-08T11:26:08.204Z,98845.56
2023-05-08T11:28:41.359Z,98835.59
2023-05-08T11:31:12.555Z,98856.00
2023-05-08T11:33:41.952Z,98845.00
2023-05-08T11:36:22.354Z,98847.88
2023-05-08T11:39:13.015Z,98842.00
2023-05-08T11:41:40.262Z,98840.06
2023-05-08T11:44:22.466Z,98838.81
2023-05-08T11:46:52.298Z,98825.94
2023-05-08T11:49:29.001Z,98833.34
2023-05-08T11:51:58.969Z,98837.72
2023-05-08T11:54:30.600Z,98820.81
2023-05-08T11:57:00.471Z,98830.22
2023-05-08T11:59:28.851Z,98828.19
2023-05-08T12:02:08.687Z,98826.47
2023-05-08T12:04:48.254Z,98821.16
2023-05-08T12:07:16.855Z,98825.50
2023-05-08T12:09:49.238Z,98824.75
2023-05-08T12:12:17.402Z,98814.38
2023-05-08T12:14:49.848Z,98815.31
2023-05-08T12:17:21.982Z,98799.25
2023-05-08T12:19:54.915Z,98819.53
2023-05-08T12:22:25.102Z,98816.69
2023-05-08T12:24:55.068Z,98815.84
2023-05-08T12:27:22.578Z,98815.09
2023-05-08T12:29:52.796Z,98822.84
2023-05-08T12:32:21.842Z,98822.69
2023-05-08T12:34:49.792Z,98812.78
2023-05-08T12:37:25.315Z,98819.22
2023-05-08T12:39:56.248Z,98813.72
2023-05-08T12:42:41.746Z,98807.44
2023-05-08T12:45:10.422Z,98803.94
2023-05-08T12:47:40.816Z,98794.38
2023-05-08T12:50:12.747Z,98807.72
2023-05-08T12:52:40.991Z,98805.06
2023-05-08T12:55:29.372Z,98805.16
2023-05-08T12:58:14.767Z,98795.91
2023-05-08T13:00:49.659Z,98792.94
2023-05-08T13:03:29.782Z,98798.91
2023-05-08T13:05:59.446Z,98799.97
2023-05-08T13:08:34.481Z,98793.97
2023-05-08T13:11:04.331Z,98792.97
2023-05-08T13:13:34.087Z,98789.88
2023-05-08T13:16:06.557Z,98785.13
2023-05-08T13:18:36.904Z,98786.91
2023-05-08T13:21:05.169Z,98779.56
2023-05-08T13:23:35.018Z,98763.41
2023-05-08T13:26:03.916Z,98776.72
2023-05-08T13:28:31.542Z,98776.41
2023-05-08T13:31:00.159Z,98773.75
2023-05-08T13:33:31.930Z,98764.88
2023-05-08T13:36:00.740Z,98767.44
2023-05-08T13:38:28.769Z,98765.63
2023-05-08T13:40:56.993Z,98766.50
2023-05-08T13:43:29.473Z,98768.00
2023-05-08T13:45:56.363Z,98756.34
2023-05-08T13:48:24.037Z,98764.84
2023-05-08T13:50:52.090Z,98743.81
2023-05-08T13:53:20.181Z,98768.22
2023-05-08T13:55:47.575Z,98767.50
2023-05-08T13:58:15.038Z,98762.78
2023-05-08T14:00:42.637Z,98750.69
2023-05-08T14:03:10.171Z,98763.91
2023-05-08T14:05:37.306Z,98759.03
2023-05-08T14:08:05.251Z,98761.19
2023-05-08T14:10:32.778Z,98756.09
2023-05-08T14:13:00.620Z,98754.28
2023-05-08T14:15:36.468Z,98755.19
2023-05-08T14:18:05.207Z,98745.22
2023-05-08T14:20:32.558Z,98744.13
2023-05-08T14:23:00.341Z,98753.97
2023-05-08T14:25:28.376Z,98756.47
2023-05-08T14:27:56.131Z,98750.63
2023-05-08T14:30:23.313Z,98744.81
2023-05-08T14:32:51.109Z,98742.06
2023-05-08T14:35:18.470Z,98749.19
2023-05-08T14:37:48.518Z,98743.38
2023-05-08T14:40:15.922Z,98743.16
2023-05-08T14:42:44.901Z,98743.75
2023-05-08T14:45:12.824Z,98740.22
2023-05-08T14:47:40.766Z,98739.09
2023-05-08T14:50:12.685Z,98742.06
2023-05-08T14:52:40.402Z,98727.63
2023-05-08T14:55:08.843Z,98737.34
2023-05-08T14:57:36.795Z,98738.00
2023-05-08T15:00:08.582Z,98740.06
2023-05-08T15:02:35.935Z,98738.66
2023-05-08T15:05:08.255Z,98737.94
2023-05-08T15:07:40.737Z,98738.28
2023-05-08T15:10:10.157Z,98728.28
2023-05-08T15:12:38.058Z,98733.66
2023-05-08T15:15:06.568Z,98735.88
2023-05-08T15:17:36.782Z,98743.25
2023-05-08T15:20:06.530Z,98737.69
2023-05-08T15:22:38.924Z,98738.19
2023-05-08T15:25:07.504Z,98731.63
2023-05-08T15:27:35.662Z,98735.25
2023-05-08T15:30:04.034Z,98734.75
2023-05-08T15:32:32.370Z,98739.16
2023-05-08T15:35:00.264Z,98740.13
2023-05-08T15:37:28.644Z,98733.25
2023-05-08T15:39:56.765Z,98735.91
2023-05-08T15:42:27.418Z,98727.34
2023-05-08T15:44:59.215Z,98728.28
2023-05-08T15:47:27.864Z,98735.63
2023-05-08T15:49:56.198Z,98721.13
2023-05-08T15:52:24.857Z,98729.59
2023-05-08T15:54:52.293Z,98717.09
2023-05-08T15:57:20.256Z,98723.25
2023-05-08T15:59:48.359Z,98724.47
2023-05-08T16:02:16.017Z,98728.09
2023-05-08T16:04:44.109Z,98721.13
2023-05-08T16:07:12.177Z,98715.66
2023-05-08T16:09:40.036Z,98719.19
2023-05-08T16:12:08.208Z,98719.50
2023-05-08T16:14:36.690Z,98721.88
2023-05-08T16:17:04.705Z,98715.97
2023-05-08T16:19:38.186Z,98712.72
2023-05-08T16:22:07.104Z,98706.38
2023-05-08T16:24:34.295Z,98697.25
2023-05-08T16:27:02.409Z,98698.97
2023-05-08T16:29:30.213Z,98711.91
2023-05-08T16:31:58.073Z,98713.97
2023-05-08T16:34:26.455Z,98716.34
2023-05-08T16:36:54.134Z,98709.06
2023-05-08T16:39:25.677Z,98714.47
2023-05-08T16:41:53.324Z,98711.78
2023-05-08T16:44:21.870Z,98705.31
2023-05-08T16:46:49.673Z,98698.06
2023-05-08T16:49:17.318Z,98713.97
2023-05-08T16:51:45.624Z,98699.09
2023-05-08T16:54:13.690Z,98709.34
2023-05-08T16:56:42.680Z,98709.47
2023-05-08T16:59:10.673Z,98722.22
2023-05-08T17:01:44.593Z,98708.31
2023-05-08T17:04:12.916Z,98714.69
2023-05-08T17:06:41.282Z,98710.38
2023-05-08T17:09:10.083Z,98720.50
2023-05-08T17:11:41.676Z,98722.69
2023-05-08T17:14:10.383Z,98724.72
2023-05-08T17:16:42.594Z,98724.50
2023-05-08T17:19:11.563Z,98725.19
2023-05-08T17:21:47.980Z,98725.03
2023-05-08T17:24:17.507Z,98725.88
2023-05-08T17:26:49.990Z,98730.69
2023-05-08T17:29:18.483Z,98733.19
2023-05-08T17:31:47.407Z,98730.50
2023-05-08T17:34:16.647Z,98735.38
2023-05-08T17:36:44.972Z,98710.22
2023-05-08T17:39:13.355Z,98732.38
2023-05-08T17:41:41.683Z,98735.41
2023-05-08T17:44:12.886Z,98738.84
2023-05-08T17:46:41.948Z,98728.69
2023-05-08T17:49:19.577Z,98735.34
2023-05-08T17:51:49.248Z,98741.94
2023-05-08T17:54:17.621Z,98756.03
2023-05-08T17:56:57.840Z,98756.03
2023-05-08T17:59:27.755Z,98760.09
2023-05-08T18:01:56.325Z,98759.69
2023-05-08T18:04:31.767Z,98749.22
2023-05-08T18:07:02.294Z,98760.38
2023-05-08T18:09:31.510Z,98752.81
2023-05-08T18:12:03.358Z,98766.41
2023-05-08T18:14:33.340Z,98761.56
2023-05-08T18:17:02.796Z,98764.19
2023-05-08T18:19:34.842Z,98766.94
2023-05-08T18:22:05.481Z,98767.69
2023-05-08T18:24:37.063Z,98773.66
2023-05-08T18:27:07.922Z,98767.19
2023-05-08T18:29:38.788Z,98767.69
2023-05-08T18:32:13.835Z,98770.31
2023-05-08T18:34:45.520Z,98767.41
2023-05-08T18:37:13.891Z,98762.53
2023-05-08T18:39:43.428Z,98772.09
2023-05-08T18:42:15.066Z,98779.44
2023-05-08T18:44:45.927Z,98786.31
2023-05-08T18:47:14.835Z,98778.75
2023-05-08T18:49:47.324Z,98788.75
2023-05-08T18:52:17.690Z,98791.94
2023-05-08T18:54:47.075Z,98794.63
2023-05-08T18:57:16.851Z,98794.19
2023-05-08T18:59:45.316Z,98808.44
2023-05-08T19:02:14.469Z,98810.97
2023-05-08T19:04:43.664Z,98816.31
2023-05-08T19:07:12.630Z,98821.09
2023-05-08T19:09:44.223Z,98810.53
2023-05-08T19:12:15.660Z,98817.22
2023-05-08T19:14:46.524Z,98815.13
2023-05-08T19:17:14.678Z,98811.09
2023-05-08T19:19:46.907Z,98819.13
2023-05-08T19:22:15.943Z,98818.63
2023-05-08T19:24:48.786Z,98824.25
2023-05-08T19:27:18.037Z,98819.34
2023-05-08T19:29:46.783Z,98812.84
2023-05-08T19:32:15.851Z,98813.69
2023-05-08T19:34:48.047Z,98815.47
2023-05-08T19:37:16.586Z,98824.69
2023-05-08T19:39:47.391Z,98819.13
2023-05-08T19:42:18.625Z,98812.75
2023-05-08T19:44:48.888Z,98815.53
2023-05-08T19:47:22.299Z,98808.97
2023-05-08T19:49:51.303Z,98804.53
2023-05-08T19:52:21.497Z,98811.78
2023-05-08T19:54:50.958Z,98807.38
2023-05-08T19:57:24.000Z,98815.53
2023-05-08T19:59:53.064Z,98818.44
2023-05-08T20:02:21.810Z,98819.47
2023-05-08T20:05:14.575Z,98816.41
2023-05-08T20:07:38.522Z,98820.13
2023-05-08T20:10:07.412Z,98820.00
2023-05-08T20:12:37.903Z,98822.47
2023-05-08T20:15:06.995Z,98818.75
2023-05-08T20:17:34.598Z,98829.00
2023-05-08T20:20:03.824Z,98827.25
2023-05-08T20:22:31.442Z,98824.47
2023-05-08T20:25:00.494Z,98822.06
2023-05-08T20:27:30.328Z,98821.28
2023-05-08T20:30:03.156Z,98820.81
2023-05-08T20:32:31.478Z,98824.22
2023-05-08T20:35:02.690Z,98818.31
2023-05-08T20:37:31.666Z,98827.50
2023-05-08T20:40:00.459Z,98830.13
2023-05-08T20:42:31.315Z,98826.16
2023-05-08T20:45:01.944Z,98814.94
2023-05-08T20:47:34.232Z,98826.78
2023-05-08T20:50:05.305Z,98828.88
2023-05-08T20:52:38.459Z,98826.16
2023-05-08T20:55:09.324Z,98822.53
2023-05-08T20:57:40.435Z,98830.25
2023-05-08T21:00:13.249Z,98823.25
2023-05-08T21:02:46.965Z,98822.19
2023-05-08T21:05:19.181Z,98830.75
2023-05-08T21:07:47.670Z,98821.16
2023-05-08T21:10:16.915Z,98822.19
2023-05-08T21:12:47.269Z,98824.28
2023-05-08T21:15:16.287Z,98825.59
2023-05-08T21:17:46.909Z,98821.34
2023-05-08T21:20:18.433Z,98827.75
2023-05-08T21:22:49.929Z,98824.38
2023-05-08T21:25:33.839Z,98821.72
2023-05-08T21:28:06.712Z,98824.16
2023-05-08T21:30:38.479Z,98826.34
2023-05-08T21:33:14.289Z,98822.00
2023-05-08T21:35:44.150Z,98823.69
2023-05-08T21:38:12.609Z,98816.91
2023-05-08T21:40:46.225Z,98828.66
2023-05-08T21:43:14.414Z,98828.06
2023-05-08T21:45:48.169Z,98834.47
2023-05-08T21:48:19.445Z,98827.44
2023-05-08T21:50:54.720Z,98829.47
2023-05-08T21:53:26.472Z,98829.63
2023-05-08T21:56:03.740Z,98824.16
2023-05-08T21:58:37.962Z,98831.22
2023-05-08T22:01:09.784Z,98825.97
2023-05-08T22:03:38.582Z,98828.25
2023-05-08T22:06:08.123Z,98838.31
2023-05-08T22:08:39.626Z,98842.31
2023-05-08T22:11:08.584Z,98838.88
2023-05-08T22:13:37.451Z,98847.16
2023-05-08T22:16:10.643Z,98854.63
2023-05-08T22:18:42.474Z,98843.78
2023-05-08T22:21:14.551Z,98844.72
2023-05-08T22:23:43.188Z,98853.31
2023-05-08T22:26:12.150Z,98840.97
2023-05-08T22:28:41.038Z,98845.28
2023-05-08T22:31:09.808Z,98846.41
2023-05-08T22:33:37.442Z,98844.44
2023-05-08T22:36:05.977Z,98860.09
2023-05-08T22:38:39.954Z,98852.00
2023-05-08T22:41:09.139Z,98849.97
2023-05-08T22:43:38.411Z,98850.81
2023-05-08T22:46:06.563Z,98830.25
2023-05-08T22:48:35.160Z,98845.44
2023-05-08T22:51:03.649Z,98840.19
2023-05-08T22:53:32.610Z,98827.28
2023-05-08T22:56:00.902Z,98824.72
2023-05-08T22:58:31.521Z,98829.56
2023-05-08T23:01:00.233Z,98828.13
2023-05-08T23:03:35.395Z,98819.53
2023-05-08T23:06:03.728Z,98825.75
2023-05-08T23:08:32.416Z,98832.47
2023-05-08T23:11:00.278Z,98831.44
2023-05-08T23:13:32.168Z,98833.25
2023-05-08T23:16:00.389Z,98821.66
2023-05-08T23:18:34.572Z,98823.22
2023-05-08T23:21:08.090Z,98829.38
2023-05-08T23:23:35.678Z,98825.84
2023-05-08T23:26:05.658Z,98832.19
2023-05-08T23:28:37.185Z,98829.00
2023-05-08T23:31:05.111Z,98826.25
2023-05-08T23:33:32.736Z,98813.53
2023-05-08T23:36:01.150Z,98819.88
2023-05-08T23:38:29.110Z,98822.75
2023-05-08T23:40:57.136Z,98812.63
2023-05-08T23:43:28.071Z,98808.16
2023-05-08T23:45:56.289Z,98818.56
2023-05-08T23:48:25.978Z,98810.75
2023-05-08T23:50:53.812Z,98813.94
2023-05-08T23:53:22.320Z,98821.16
2023-05-08T23:55:51.043Z,98814.78
2023-05-08T23:58:21.893Z,98821.25
